Time;durP1;ratioP1;P1;durP2;ratioP2;P2;SDS_P1;SDS_P2;PMS_P1;PMS_P2;Temp;Humidity;BMP_temperature;BMP_pressure;BME280_temperature;BME280_humidity;BME280_pressure;Samples;Min_cycle;Max_cycle;Signal;HPM_P1;HPM_P2
2023/12/13 00:00:50;;;;;;;28.95;26.55;;;;;;;;;;5082448;28;20103;-64
2023/12/13 00:03:16;;;;;;;29.30;26.90;;;;;;;;;;5071892;28;20138;-59
2023/12/13 00:05:42;;;;;;;29.65;27.25;;;;;;;;;;5070077;28;20020;-64
2023/12/13 00:08:08;;;;;;;30.00;27.60;;;;;;;;;;5081011;28;20497;-64
2023/12/13 00:10:34;;;;;;;29.42;27.02;;;;;;;;;;5084299;28;20027;-64
2023/12/13 00:13:02;;;;;;;29.75;27.35;;;;;;;;;;5088096;28;20486;-64
2023/12/13 00:15:28;;;;;;;28.07;25.77;;;;;;;;;;5088238;28;20438;-63
2023/12/13 00:17:56;;;;;;;27.92;25.63;;;;;;;;;;5088740;28;20028;-64
2023/12/13 00:20:22;;;;;;;28.70;26.40;;;;;;;;;;5088599;28;20420;-62
2023/12/13 00:22:48;;;;;;;27.58;25.38;;;;;;;;;;5078492;28;20090;-62
2023/12/13 00:25:14;;;;;;;27.85;25.65;;;;;;;;;;5066973;28;20024;-63
2023/12/13 00:27:40;;;;;;;24.50;22.50;;;;;;;;;;5085139;28;20024;-67
2023/12/13 00:30:06;;;;;;;24.13;22.13;;;;;;;;;;5066594;28;20485;-61
2023/12/13 00:32:32;;;;;;;24.90;22.88;;;;;;;;;;5077971;28;20056;-60
2023/12/13 00:34:58;;;;;;;25.50;23.40;;;;;;;;;;5087980;28;20617;-61
2023/12/13 00:37:24;;;;;;;25.10;23.00;;;;;;;;;;5070921;28;20044;-62
2023/12/13 00:39:50;;;;;;;25.23;23.13;;;;;;;;;;5070579;28;20052;-63
2023/12/13 00:42:16;;;;;;;24.52;22.52;;;;;;;;;;5076076;28;20109;-63
2023/12/13 00:44:42;;;;;;;24.35;22.35;;;;;;;;;;5073033;28;20367;-62
2023/12/13 00:47:09;;;;;;;24.08;22.08;;;;;;;;;;5070625;28;20138;-62
2023/12/13 00:49:35;;;;;;;24.10;22.10;;;;;;;;;;5070224;28;20075;-62
2023/12/13 00:52:02;;;;;;;23.52;21.52;;;;;;;;;;5090137;28;20054;-61
2023/12/13 00:54:28;;;;;;;23.38;21.38;;;;;;;;;;5090989;28;20042;-62
2023/12/13 00:56:54;;;;;;;23.05;21.05;;;;;;;;;;5090412;28;20492;-60
2023/12/13 00:59:20;;;;;;;22.30;20.40;;;;;;;;;;5090655;28;20055;-62
2023/12/13 01:01:46;;;;;;;22.35;20.45;;;;;;;;;;5090351;28;20028;-63
2023/12/13 01:04:12;;;;;;;22.15;20.25;;;;;;;;;;5090366;28;20367;-61
2023/12/13 01:06:38;;;;;;;21.52;19.63;;;;;;;;;;5090265;28;20476;-60
2023/12/13 01:09:04;;;;;;;21.70;19.80;;;;;;;;;;5072398;28;20044;-61
2023/12/13 01:11:31;;;;;;;21.45;19.55;;;;;;;;;;5089700;28;20029;-60
2023/12/13 01:13:57;;;;;;;21.70;19.80;;;;;;;;;;5070367;28;20028;-63
2023/12/13 01:16:23;;;;;;;21.38;19.48;;;;;;;;;;5070123;28;20083;-62
2023/12/13 01:18:49;;;;;;;21.60;19.70;;;;;;;;;;5069733;28;20028;-62
2023/12/13 01:21:15;;;;;;;21.52;19.63;;;;;;;;;;5069821;28;20063;-63
2023/12/13 01:23:41;;;;;;;21.30;19.40;;;;;;;;;;5070365;28;20028;-62
2023/12/13 01:26:07;;;;;;;21.35;19.45;;;;;;;;;;5085696;28;20020;-62
2023/12/13 01:28:33;;;;;;;21.17;19.27;;;;;;;;;;5070031;28;20024;-61
2023/12/13 01:30:59;;;;;;;20.80;18.90;;;;;;;;;;5068373;28;20024;-61
2023/12/13 01:33:25;;;;;;;20.73;18.83;;;;;;;;;;5068582;28;20111;-62
2023/12/13 01:35:51;;;;;;;20.80;18.90;;;;;;;;;;5069759;28;20101;-63
2023/12/13 01:38:17;;;;;;;20.67;18.77;;;;;;;;;;5069928;28;20028;-63
2023/12/13 01:40:53;;;;;;;20.23;18.38;;;;;;;;;;5069339;28;20410;-62
2023/12/13 01:43:23;;;;;;;20.50;18.60;;;;;;;;;;5069482;28;20035;-64
2023/12/13 01:45:49;;;;;;;20.55;18.65;;;;;;;;;;5068239;28;20457;-63
2023/12/13 01:48:15;;;;;;;20.58;18.67;;;;;;;;;;5069353;28;20017;-62
2023/12/13 01:50:41;;;;;;;20.13;18.33;;;;;;;;;;5069259;28;20027;-63
2023/12/13 01:53:07;;;;;;;20.33;18.52;;;;;;;;;;5077324;28;20034;-63
2023/12/13 01:55:34;;;;;;;19.90;18.10;;;;;;;;;;5068159;28;20036;-63
2023/12/13 01:58:00;;;;;;;19.95;18.15;;;;;;;;;;5069089;28;20467;-62
2023/12/13 02:00:26;;;;;;;19.77;17.98;;;;;;;;;;5073764;28;20074;-63
2023/12/13 02:02:52;;;;;;;19.85;18.05;;;;;;;;;;5089038;28;20389;-61
2023/12/13 02:05:19;;;;;;;19.80;18.00;;;;;;;;;;5079026;28;20025;-60
2023/12/13 02:07:45;;;;;;;19.50;17.70;;;;;;;;;;5069219;28;20111;-63
2023/12/13 02:10:11;;;;;;;19.92;18.13;;;;;;;;;;5069196;28;20071;-62
2023/12/13 02:12:38;;;;;;;19.75;17.95;;;;;;;;;;5069199;28;20115;-63
2023/12/13 02:15:04;;;;;;;19.95;18.15;;;;;;;;;;5069256;28;20557;-64
2023/12/13 02:17:30;;;;;;;19.45;17.65;;;;;;;;;;5076552;28;20490;-63
2023/12/13 02:19:56;;;;;;;19.60;17.80;;;;;;;;;;5069423;28;20086;-64
2023/12/13 02:22:23;;;;;;;20.02;18.23;;;;;;;;;;5068435;28;20054;-61
2023/12/13 02:24:50;;;;;;;19.80;18.00;;;;;;;;;;5070828;28;20020;-63
2023/12/13 02:27:16;;;;;;;19.75;17.95;;;;;;;;;;5071297;28;20124;-64
2023/12/13 02:29:42;;;;;;;20.02;18.23;;;;;;;;;;5072505;28;20020;-63
2023/12/13 02:32:08;;;;;;;20.00;18.20;;;;;;;;;;5072512;28;20173;-63
2023/12/13 02:34:34;;;;;;;19.75;17.95;;;;;;;;;;5072954;28;20393;-63
2023/12/13 02:37:02;;;;;;;19.90;18.10;;;;;;;;;;5075880;28;20034;-63
2023/12/13 02:39:28;;;;;;;19.65;17.85;;;;;;;;;;5071133;28;20021;-62
2023/12/13 02:41:54;;;;;;;19.80;18.00;;;;;;;;;;5088785;28;20035;-63
2023/12/13 02:44:20;;;;;;;19.30;17.50;;;;;;;;;;5072319;28;20059;-63
2023/12/13 02:46:46;;;;;;;20.23;18.33;;;;;;;;;;5072295;28;20031;-63
2023/12/13 02:49:12;;;;;;;19.23;17.42;;;;;;;;;;5071175;28;20029;-63
2023/12/13 02:51:38;;;;;;;19.15;17.35;;;;;;;;;;5088651;28;20058;-63
2023/12/13 02:54:04;;;;;;;19.17;17.38;;;;;;;;;;5075916;28;20058;-63
2023/12/13 02:56:30;;;;;;;19.48;17.67;;;;;;;;;;5092566;28;20020;-62
2023/12/13 02:58:56;;;;;;;19.52;17.73;;;;;;;;;;5092218;28;20116;-62
2023/12/13 03:01:22;;;;;;;19.63;17.83;;;;;;;;;;5092134;28;20027;-63
2023/12/13 03:03:48;;;;;;;19.45;17.65;;;;;;;;;;5091939;28;20109;-62
2023/12/13 03:06:14;;;;;;;19.70;17.90;;;;;;;;;;5091728;28;20040;-64
2023/12/13 03:08:40;;;;;;;19.73;17.92;;;;;;;;;;5091986;28;20020;-63
2023/12/13 03:11:06;;;;;;;19.75;17.95;;;;;;;;;;5087610;28;20016;-63
2023/12/13 03:13:32;;;;;;;24.00;21.80;;;;;;;;;;5071672;28;20031;-63
2023/12/13 03:15:58;;;;;;;19.80;18.00;;;;;;;;;;5071431;28;20020;-63
2023/12/13 03:18:24;;;;;;;20.13;18.33;;;;;;;;;;5071360;28;20497;-62
2023/12/13 03:20:50;;;;;;;20.42;18.52;;;;;;;;;;5071426;28;20028;-64
2023/12/13 03:23:16;;;;;;;20.00;18.20;;;;;;;;;;5071696;28;20021;-63
2023/12/13 03:25:42;;;;;;;20.70;18.80;;;;;;;;;;5080753;28;20024;-63
2023/12/13 03:28:08;;;;;;;20.08;18.27;;;;;;;;;;5079682;28;20029;-63
2023/12/13 03:30:34;;;;;;;19.77;17.98;;;;;;;;;;5079145;28;20493;-64
2023/12/13 03:33:00;;;;;;;20.25;18.45;;;;;;;;;;5074774;28;20035;-63
2023/12/13 03:35:26;;;;;;;19.75;17.95;;;;;;;;;;5082786;28;20031;-63
2023/12/13 03:37:52;;;;;;;19.85;18.05;;;;;;;;;;5069730;28;20016;-62
2023/12/13 03:40:18;;;;;;;19.85;18.05;;;;;;;;;;5079449;28;20118;-64
2023/12/13 03:42:44;;;;;;;20.02;18.23;;;;;;;;;;5071668;28;20420;-64
2023/12/13 03:45:10;;;;;;;20.33;18.52;;;;;;;;;;5086863;28;20024;-64
2023/12/13 03:47:36;;;;;;;19.77;17.98;;;;;;;;;;5069751;28;20021;-64
2023/12/13 03:50:02;;;;;;;19.55;17.75;;;;;;;;;;5070905;28;20020;-63
2023/12/13 03:52:28;;;;;;;19.85;18.05;;;;;;;;;;5070599;28;20494;-64
2023/12/13 03:54:54;;;;;;;19.80;18.00;;;;;;;;;;5071032;28;20025;-64
2023/12/13 03:57:20;;;;;;;19.90;18.10;;;;;;;;;;5071180;28;20031;-65
2023/12/13 03:59:46;;;;;;;20.05;18.25;;;;;;;;;;5069829;28;20024;-64
2023/12/13 04:02:12;;;;;;;19.52;17.73;;;;;;;;;;5071055;28;20054;-65
2023/12/13 04:04:38;;;;;;;19.95;18.15;;;;;;;;;;5071117;28;20016;-64
2023/12/13 04:07:08;;;;;;;20.90;18.90;;;;;;;;;;5080058;28;20538;-64
2023/12/13 04:09:34;;;;;;;19.80;18.00;;;;;;;;;;5088087;28;20012;-64
2023/12/13 04:12:02;;;;;;;19.38;17.58;;;;;;;;;;5082232;28;20394;-64
2023/12/13 04:14:28;;;;;;;19.42;17.63;;;;;;;;;;5070608;28;20004;-62
2023/12/13 04:16:54;;;;;;;19.45;17.65;;;;;;;;;;5070551;28;20076;-63
2023/12/13 04:19:20;;;;;;;23.77;18.85;;;;;;;;;;5076569;28;20072;-63
2023/12/13 04:21:46;;;;;;;19.90;18.05;;;;;;;;;;5072717;28;20020;-63
2023/12/13 04:24:12;;;;;;;19.15;17.35;;;;;;;;;;5071193;28;20020;-62
2023/12/13 04:26:39;;;;;;;19.30;17.50;;;;;;;;;;5070998;28;20021;-63
2023/12/13 04:29:05;;;;;;;19.27;17.48;;;;;;;;;;5070558;28;20028;-63
2023/12/13 04:31:31;;;;;;;19.33;17.52;;;;;;;;;;5077771;28;20113;-63
2023/12/13 04:33:57;;;;;;;19.52;17.73;;;;;;;;;;5079375;28;20120;-60
2023/12/13 04:36:23;;;;;;;19.20;17.40;;;;;;;;;;5070234;28;20055;-62
2023/12/13 04:38:49;;;;;;;19.42;17.63;;;;;;;;;;5069787;28;20313;-62
2023/12/13 04:41:15;;;;;;;19.45;17.65;;;;;;;;;;5070272;28;20103;-63
2023/12/13 04:43:41;;;;;;;19.73;17.92;;;;;;;;;;5069023;28;20024;-64
2023/12/13 04:46:07;;;;;;;20.13;18.33;;;;;;;;;;5068642;28;20060;-62
2023/12/13 04:48:33;;;;;;;20.13;18.33;;;;;;;;;;5069603;28;20126;-64
2023/12/13 04:50:59;;;;;;;20.25;18.45;;;;;;;;;;5070044;28;20013;-63
2023/12/13 04:53:25;;;;;;;20.48;18.58;;;;;;;;;;5069890;28;20104;-62
2023/12/13 04:55:51;;;;;;;20.25;18.45;;;;;;;;;;5069796;28;20449;-64
2023/12/13 04:58:17;;;;;;;20.55;18.65;;;;;;;;;;5069957;28;20051;-64
2023/12/13 05:00:43;;;;;;;20.58;18.67;;;;;;;;;;5068441;28;20032;-63
2023/12/13 05:03:09;;;;;;;20.65;18.75;;;;;;;;;;5069515;28;20021;-64
2023/12/13 05:05:35;;;;;;;20.77;18.88;;;;;;;;;;5069925;28;20072;-64
2023/12/13 05:08:01;;;;;;;21.73;19.83;;;;;;;;;;5069801;28;20046;-64
2023/12/13 05:10:27;;;;;;;22.10;20.20;;;;;;;;;;5069402;28;20031;-63
2023/12/13 05:12:53;;;;;;;22.73;20.83;;;;;;;;;;5069789;28;20099;-64
2023/12/13 05:15:19;;;;;;;21.17;19.27;;;;;;;;;;5070017;28;20027;-64
2023/12/13 05:17:45;;;;;;;20.17;18.38;;;;;;;;;;5070140;28;20022;-65
2023/12/13 05:20:11;;;;;;;20.40;18.50;;;;;;;;;;5069853;28;20032;-64
2023/12/13 05:22:37;;;;;;;20.15;18.35;;;;;;;;;;5068550;28;20025;-64
2023/12/13 05:25:03;;;;;;;19.80;18.00;;;;;;;;;;5070305;28;20043;-64
2023/12/13 05:27:29;;;;;;;19.83;18.02;;;;;;;;;;5069033;28;20017;-64
2023/12/13 05:29:55;;;;;;;19.10;17.30;;;;;;;;;;5069435;28;20391;-64
2023/12/13 05:32:21;;;;;;;18.90;17.10;;;;;;;;;;5069289;28;20028;-61
2023/12/13 05:34:47;;;;;;;19.85;18.05;;;;;;;;;;5068103;28;20069;-64
2023/12/13 05:37:13;;;;;;;20.25;18.40;;;;;;;;;;5069628;28;20051;-64
2023/12/13 05:39:39;;;;;;;21.00;19.10;;;;;;;;;;5069242;28;20104;-64
2023/12/13 05:42:05;;;;;;;21.38;19.48;;;;;;;;;;5072967;28;20024;-62
2023/12/13 05:44:31;;;;;;;21.45;19.55;;;;;;;;;;5074141;28;20037;-64
2023/12/13 05:46:57;;;;;;;30.25;27.73;;;;;;;;;;5069233;28;20069;-64
2023/12/13 05:49:23;;;;;;;22.83;20.83;;;;;;;;;;5068230;28;20013;-64
2023/12/13 05:51:50;;;;;;;22.95;20.95;;;;;;;;;;5069692;28;20059;-64
2023/12/13 05:54:16;;;;;;;22.48;20.58;;;;;;;;;;5068235;28;20051;-65
2023/12/13 05:56:42;;;;;;;21.08;19.17;;;;;;;;;;5068005;28;20017;-64
2023/12/13 05:59:08;;;;;;;21.88;19.98;;;;;;;;;;5069272;28;20024;-64
2023/12/13 06:01:33;;;;;;;23.50;21.50;;;;;;;;;;5069008;28;20099;-65
2023/12/13 06:03:59;;;;;;;22.95;20.95;;;;;;;;;;5069205;28;20024;-65
2023/12/13 06:06:25;;;;;;;23.25;21.25;;;;;;;;;;5069710;28;20021;-64
2023/12/13 06:08:51;;;;;;;24.23;22.23;;;;;;;;;;5069792;28;20092;-64
2023/12/13 06:11:17;;;;;;;24.50;22.40;;;;;;;;;;5069466;28;20110;-63
2023/12/13 06:13:43;;;;;;;23.85;21.85;;;;;;;;;;5076062;28;20046;-63
2023/12/13 06:16:12;;;;;;;24.67;22.58;;;;;;;;;;5075941;28;20047;-63
2023/12/13 06:18:39;;;;;;;24.20;22.17;;;;;;;;;;5070137;28;20482;-64
2023/12/13 06:21:06;;;;;;;24.63;22.52;;;;;;;;;;5069565;28;20066;-63
2023/12/13 06:23:32;;;;;;;25.02;22.92;;;;;;;;;;5069121;28;20024;-64
2023/12/13 06:25:58;;;;;;;24.67;22.58;;;;;;;;;;5070025;28;20029;-64
2023/12/13 06:28:24;;;;;;;24.65;22.55;;;;;;;;;;5069617;28;20100;-63
2023/12/13 06:30:50;;;;;;;24.80;22.70;;;;;;;;;;5069467;28;20474;-64
2023/12/13 06:33:18;;;;;;;25.15;23.05;;;;;;;;;;5069038;28;20055;-63
2023/12/13 06:35:44;;;;;;;25.20;23.10;;;;;;;;;;5069884;28;20088;-63
2023/12/13 06:38:11;;;;;;;24.67;22.58;;;;;;;;;;5069425;28;20031;-64
2023/12/13 06:40:38;;;;;;;25.20;23.10;;;;;;;;;;5068045;28;20364;-63
2023/12/13 06:43:05;;;;;;;24.92;22.83;;;;;;;;;;5069138;28;20027;-62
2023/12/13 06:45:31;;;;;;;25.50;23.40;;;;;;;;;;5071584;28;20033;-65
2023/12/13 06:47:57;;;;;;;25.67;23.58;;;;;;;;;;5068861;28;20028;-64
2023/12/13 06:50:24;;;;;;;25.45;23.35;;;;;;;;;;5069640;28;20052;-62
2023/12/13 06:52:51;;;;;;;25.05;22.95;;;;;;;;;;5070467;28;20016;-63
2023/12/13 06:55:18;;;;;;;25.45;23.35;;;;;;;;;;5089537;28;20035;-64
2023/12/13 06:57:44;;;;;;;25.48;23.38;;;;;;;;;;5089923;28;20027;-64
2023/12/13 07:00:10;;;;;;;25.88;23.67;;;;;;;;;;5085032;28;20017;-64
2023/12/13 07:02:37;;;;;;;25.90;23.75;;;;;;;;;;5069573;28;20020;-65
2023/12/13 07:05:03;;;;;;;26.00;23.80;;;;;;;;;;5081684;28;20043;-63
2023/12/13 07:07:29;;;;;;;25.58;23.45;;;;;;;;;;5068219;28;20505;-64
2023/12/13 07:09:55;;;;;;;26.02;23.83;;;;;;;;;;5068321;28;20016;-64
2023/12/13 07:12:21;;;;;;;25.42;23.33;;;;;;;;;;5087094;28;20245;-62
2023/12/13 07:14:47;;;;;;;25.60;23.50;;;;;;;;;;5074618;28;20025;-64
2023/12/13 07:17:13;;;;;;;24.77;22.67;;;;;;;;;;5073036;28;20081;-64
2023/12/13 07:19:39;;;;;;;24.95;22.85;;;;;;;;;;5073150;28;20372;-64
2023/12/13 07:22:05;;;;;;;24.73;22.63;;;;;;;;;;5072026;28;20044;-63
2023/12/13 07:24:31;;;;;;;25.35;23.25;;;;;;;;;;5072697;28;20416;-65
2023/12/13 07:26:57;;;;;;;24.98;22.88;;;;;;;;;;5072256;28;20024;-65
2023/12/13 07:29:23;;;;;;;24.83;22.73;;;;;;;;;;5071134;28;20063;-64
2023/12/13 07:31:50;;;;;;;24.40;22.30;;;;;;;;;;5080057;28;20016;-64
2023/12/13 07:34:18;;;;;;;24.38;22.27;;;;;;;;;;5074476;28;20185;-64
2023/12/13 07:36:48;;;;;;;24.13;22.02;;;;;;;;;;5070076;28;20016;-62
2023/12/13 07:39:14;;;;;;;24.70;22.60;;;;;;;;;;5086678;28;20042;-66
2023/12/13 07:41:40;;;;;;;24.25;22.15;;;;;;;;;;5087746;28;20035;-63
2023/12/13 07:44:06;;;;;;;24.15;22.05;;;;;;;;;;5072681;28;20387;-62
2023/12/13 07:46:32;;;;;;;24.15;22.05;;;;;;;;;;5084463;28;20039;-66
2023/12/13 07:49:03;;;;;;;24.45;22.35;;;;;;;;;;5071608;28;20078;-66
2023/12/13 07:51:32;;;;;;;24.23;22.13;;;;;;;;;;5078979;28;20016;-66
2023/12/13 07:54:00;;;;;;;24.25;22.15;;;;;;;;;;5081261;28;20095;-65
2023/12/13 07:56:28;;;;;;;24.48;22.38;;;;;;;;;;5071220;28;20016;-65
2023/12/13 07:58:54;;;;;;;24.43;22.33;;;;;;;;;;5071052;28;20012;-61
2023/12/13 08:01:20;;;;;;;24.90;22.80;;;;;;;;;;5069703;28;20267;-63
2023/12/13 08:03:46;;;;;;;24.27;22.17;;;;;;;;;;5070815;28;20414;-65
2023/12/13 08:06:18;;;;;;;24.55;22.45;;;;;;;;;;5079284;28;20020;-65
2023/12/13 08:08:44;;;;;;;24.70;22.60;;;;;;;;;;5071069;28;20471;-65
2023/12/13 08:11:14;;;;;;;24.38;22.27;;;;;;;;;;5083937;28;20024;-64
2023/12/13 08:13:42;;;;;;;24.15;22.05;;;;;;;;;;5082434;28;20013;-64
2023/12/13 08:16:09;;;;;;;24.52;22.42;;;;;;;;;;5069421;28;20531;-65
2023/12/13 08:18:35;;;;;;;24.13;22.02;;;;;;;;;;5083016;28;20028;-66
2023/12/13 08:21:03;;;;;;;24.23;22.13;;;;;;;;;;5087798;28;20050;-65
2023/12/13 08:23:29;;;;;;;24.38;22.27;;;;;;;;;;5072096;28;20013;-65
2023/12/13 08:25:56;;;;;;;24.15;22.05;;;;;;;;;;5070828;28;20391;-65
2023/12/13 08:28:22;;;;;;;24.08;21.98;;;;;;;;;;5070819;28;20391;-65
2023/12/13 08:30:48;;;;;;;24.13;22.02;;;;;;;;;;5071545;28;20021;-65
2023/12/13 08:33:14;;;;;;;23.88;21.77;;;;;;;;;;5081935;28;20119;-65
2023/12/13 08:35:40;;;;;;;24.10;22.00;;;;;;;;;;5081982;28;20025;-65
2023/12/13 08:38:06;;;;;;;24.73;22.52;;;;;;;;;;5082279;28;20016;-66
2023/12/13 08:40:32;;;;;;;24.05;21.95;;;;;;;;;;5089906;28;20387;-65
2023/12/13 08:42:58;;;;;;;25.60;23.50;;;;;;;;;;5086984;28;20112;-64
2023/12/13 08:45:24;;;;;;;24.27;22.17;;;;;;;;;;5070031;28;20530;-61
2023/12/13 08:47:50;;;;;;;23.50;21.50;;;;;;;;;;5069847;28;20048;-64
2023/12/13 08:50:16;;;;;;;23.40;21.40;;;;;;;;;;5069755;28;20421;-65
2023/12/13 08:52:42;;;;;;;23.05;21.05;;;;;;;;;;5069903;28;20020;-68
2023/12/13 08:55:08;;;;;;;23.40;21.40;;;;;;;;;;5070174;28;20386;-61
2023/12/13 08:57:34;;;;;;;23.08;21.08;;;;;;;;;;5069457;28;20385;-59
2023/12/13 09:00:01;;;;;;;23.50;21.50;;;;;;;;;;5080137;28;20486;-58
2023/12/13 09:02:27;;;;;;;23.38;21.38;;;;;;;;;;5080384;28;20035;-55
2023/12/13 09:04:52;;;;;;;23.25;21.25;;;;;;;;;;5078839;28;20013;-54
2023/12/13 09:07:18;;;;;;;23.77;21.77;;;;;;;;;;5069253;28;20533;-58
2023/12/13 09:09:45;;;;;;;23.92;21.92;;;;;;;;;;5069296;28;20020;-58
2023/12/13 09:12:12;;;;;;;23.85;21.85;;;;;;;;;;5080925;28;20104;-57
2023/12/13 09:14:38;;;;;;;24.35;22.25;;;;;;;;;;5072426;28;20066;-58
2023/12/13 09:17:04;;;;;;;24.00;21.90;;;;;;;;;;5072355;28;20099;-54
2023/12/13 09:19:30;;;;;;;24.48;22.38;;;;;;;;;;5080489;28;20493;-57
2023/12/13 09:21:56;;;;;;;24.40;22.30;;;;;;;;;;5077551;28;20048;-56
2023/12/13 09:24:22;;;;;;;24.63;22.52;;;;;;;;;;5082980;28;20382;-51
2023/12/13 09:26:49;;;;;;;24.92;22.83;;;;;;;;;;5070755;28;20016;-57
2023/12/13 09:29:15;;;;;;;24.73;22.63;;;;;;;;;;5067191;28;20021;-58
2023/12/13 09:31:41;;;;;;;25.17;23.08;;;;;;;;;;5068398;28;20032;-58
2023/12/13 09:34:07;;;;;;;24.88;22.77;;;;;;;;;;5084445;28;20028;-58
2023/12/13 09:36:33;;;;;;;23.48;21.48;;;;;;;;;;5068312;28;20024;-59
2023/12/13 09:38:59;;;;;;;23.40;21.40;;;;;;;;;;5071557;28;20457;-56
2023/12/13 09:41:26;;;;;;;22.77;20.77;;;;;;;;;;5080494;28;20027;-52
2023/12/13 09:43:55;;;;;;;22.27;20.27;;;;;;;;;;5079747;28;20038;-55
2023/12/13 09:46:22;;;;;;;22.45;20.45;;;;;;;;;;5088047;28;20095;-56
2023/12/13 09:48:49;;;;;;;22.48;20.48;;;;;;;;;;5089082;28;20470;-55
2023/12/13 09:51:16;;;;;;;23.90;21.90;;;;;;;;;;5088824;28;20032;-55
2023/12/13 09:53:45;;;;;;;23.40;21.40;;;;;;;;;;5088779;28;20050;-55
2023/12/13 09:56:12;;;;;;;23.65;21.55;;;;;;;;;;5088867;28;20020;-59
2023/12/13 09:58:38;;;;;;;23.33;21.33;;;;;;;;;;5088908;28;20108;-54
2023/12/13 10:01:10;;;;;;;23.45;21.45;;;;;;;;;;5089028;28;20052;-51
2023/12/13 10:03:37;;;;;;;24.52;22.42;;;;;;;;;;5070914;28;20028;-53
2023/12/13 10:06:05;;;;;;;24.67;22.58;;;;;;;;;;5089200;28;20071;-52
2023/12/13 10:08:31;;;;;;;24.23;22.13;;;;;;;;;;5089026;28;20405;-54
2023/12/13 10:10:57;;;;;;;24.70;22.60;;;;;;;;;;5088715;28;20024;-54
2023/12/13 10:13:23;;;;;;;24.48;22.38;;;;;;;;;;5088952;28;20390;-54
2023/12/13 10:15:50;;;;;;;23.55;21.55;;;;;;;;;;5088683;28;20073;-54
2023/12/13 10:18:16;;;;;;;23.85;21.75;;;;;;;;;;5088513;28;20107;-54
2023/12/13 10:20:42;;;;;;;23.95;21.85;;;;;;;;;;5088362;28;20028;-56
2023/12/13 10:23:08;;;;;;;24.20;22.10;;;;;;;;;;5088539;28;20036;-55
2023/12/13 10:25:36;;;;;;;23.90;21.80;;;;;;;;;;5090828;28;20075;-58
2023/12/13 10:28:04;;;;;;;23.95;21.85;;;;;;;;;;5079927;28;20043;-56
2023/12/13 10:30:30;;;;;;;23.67;21.58;;;;;;;;;;5092104;28;20023;-55
2023/12/13 10:32:56;;;;;;;23.90;21.80;;;;;;;;;;5089344;28;20061;-57
2023/12/13 10:35:22;;;;;;;24.25;22.15;;;;;;;;;;5088543;28;20489;-56
2023/12/13 10:37:49;;;;;;;24.58;22.48;;;;;;;;;;5050155;28;20051;-55
2023/12/13 10:40:17;;;;;;;24.98;22.88;;;;;;;;;;5068488;28;20028;-58
2023/12/13 10:42:44;;;;;;;;;;;;;;;;;;5067917;28;20049;-59
2023/12/13 10:45:10;;;;;;;23.70;21.70;;;;;;;;;;5068732;28;19916;-56
2023/12/13 10:47:39;;;;;;;23.55;21.55;;;;;;;;;;5072159;28;20498;-53
2023/12/13 10:50:06;;;;;;;23.30;21.30;;;;;;;;;;5073446;28;20016;-57
2023/12/13 10:52:33;;;;;;;22.65;20.65;;;;;;;;;;5084629;28;20025;-54
2023/12/13 10:54:59;;;;;;;23.48;21.48;;;;;;;;;;5080587;28;20078;-57
2023/12/13 10:57:25;;;;;;;23.88;21.77;;;;;;;;;;5072051;28;20578;-57
2023/12/13 10:59:51;;;;;;;23.80;21.70;;;;;;;;;;5071683;28;20020;-60
2023/12/13 11:02:18;;;;;;;22.30;20.30;;;;;;;;;;5071946;28;20032;-59
2023/12/13 11:04:45;;;;;;;22.55;20.55;;;;;;;;;;5071701;28;20122;-57
2023/12/13 11:07:11;;;;;;;22.50;20.50;;;;;;;;;;5071711;28;20267;-56
2023/12/13 11:09:49;;;;;;;22.38;20.38;;;;;;;;;;5071639;28;20102;-56
2023/12/13 11:12:18;;;;;;;22.25;20.25;;;;;;;;;;5084559;28;20021;-59
2023/12/13 11:14:47;;;;;;;22.30;20.30;;;;;;;;;;5091569;28;20099;-59
2023/12/13 11:17:13;;;;;;;22.55;20.55;;;;;;;;;;5086828;28;20162;-57
2023/12/13 11:19:39;;;;;;;23.10;21.10;;;;;;;;;;5071240;28;20028;-55
2023/12/13 11:22:06;;;;;;;23.35;21.25;;;;;;;;;;5070928;28;20012;-56
2023/12/13 11:24:36;;;;;;;23.08;21.08;;;;;;;;;;5070102;28;20093;-55
2023/12/13 11:27:10;;;;;;;23.00;21.00;;;;;;;;;;5070925;28;20008;-58
2023/12/13 11:29:36;;;;;;;22.65;20.65;;;;;;;;;;5071047;28;20048;-59
2023/12/13 11:32:05;;;;;;;21.67;19.75;;;;;;;;;;5070526;28;20021;-56
2023/12/13 11:34:44;;;;;;;21.55;19.65;;;;;;;;;;5070735;28;20020;-55
2023/12/13 11:37:11;;;;;;;22.75;20.65;;;;;;;;;;5079117;28;20540;-58
2023/12/13 11:39:38;;;;;;;21.95;20.05;;;;;;;;;;5087377;28;20016;-55
2023/12/13 11:42:07;;;;;;;20.67;18.77;;;;;;;;;;5091101;28;20078;-55
2023/12/13 11:44:34;;;;;;;20.25;18.35;;;;;;;;;;5090956;28;20027;-56
2023/12/13 11:47:01;;;;;;;19.15;17.35;;;;;;;;;;5091209;28;20475;-55
2023/12/13 11:49:27;;;;;;;20.83;18.92;;;;;;;;;;5091003;28;20028;-58
2023/12/13 11:51:53;;;;;;;21.42;19.52;;;;;;;;;;5091661;28;20031;-56
2023/12/13 11:54:19;;;;;;;21.55;19.65;;;;;;;;;;5073190;28;20028;-57
2023/12/13 11:56:45;;;;;;;22.25;20.35;;;;;;;;;;5090872;28;20024;-58
2023/12/13 11:59:11;;;;;;;21.75;19.85;;;;;;;;;;5091212;28;20032;-58
2023/12/13 12:01:38;;;;;;;20.65;18.75;;;;;;;;;;5091236;28;20030;-56
2023/12/13 12:04:04;;;;;;;21.23;19.33;;;;;;;;;;5090989;28;20500;-52
2023/12/13 12:06:30;;;;;;;21.25;19.35;;;;;;;;;;5068747;28;20093;-52
2023/12/13 12:08:59;;;;;;;20.98;19.08;;;;;;;;;;5078653;28;20044;-57
2023/12/13 12:11:25;;;;;;;;;;;;;;;;;;5071409;28;20056;-55
2023/12/13 12:13:51;;;;;;;21.65;19.75;;;;;;;;;;5074963;28;19962;-57
2023/12/13 12:16:19;;;;;;;21.73;19.83;;;;;;;;;;5052559;28;20028;-57
2023/12/13 12:18:46;;;;;;;21.73;19.83;;;;;;;;;;5070710;28;20104;-54
2023/12/13 12:21:12;;;;;;;22.15;20.15;;;;;;;;;;5070116;28;20028;-56
2023/12/13 12:23:42;;;;;;;22.27;20.27;;;;;;;;;;5052088;28;20029;-53
2023/12/13 12:26:12;;;;;;;22.40;20.40;;;;;;;;;;5070091;28;20462;-59
2023/12/13 12:28:38;;;;;;;23.63;21.60;;;;;;;;;;5070939;28;20028;-55
2023/12/13 12:31:04;;;;;;;21.55;19.65;;;;;;;;;;5080204;28;20025;-58
2023/12/13 12:33:31;;;;;;;21.77;19.88;;;;;;;;;;5060994;28;20040;-53
2023/12/13 12:35:59;;;;;;;21.67;19.77;;;;;;;;;;5071581;28;20410;-55
2023/12/13 12:38:25;;;;;;;22.20;20.20;;;;;;;;;;5070496;28;20029;-53
2023/12/13 12:40:51;;;;;;;21.15;19.25;;;;;;;;;;5069814;28;20032;-56
2023/12/13 12:43:21;;;;;;;20.52;18.63;;;;;;;;;;5069934;28;20024;-54
2023/12/13 12:45:47;;;;;;;21.50;19.60;;;;;;;;;;5067565;28;20024;-54
2023/12/13 12:48:14;;;;;;;20.75;18.85;;;;;;;;;;5070308;28;20024;-56
2023/12/13 12:50:40;;;;;;;21.27;19.38;;;;;;;;;;5069785;28;20017;-54
2023/12/13 12:53:07;;;;;;;21.48;19.58;;;;;;;;;;5069838;28;20051;-54
2023/12/13 12:55:33;;;;;;;21.83;19.92;;;;;;;;;;5069583;28;20024;-55
2023/12/13 12:57:59;;;;;;;21.83;19.92;;;;;;;;;;5069606;28;20090;-55
2023/12/13 13:00:25;;;;;;;21.90;20.00;;;;;;;;;;5069419;28;20148;-53
2023/12/13 13:02:52;;;;;;;21.30;19.40;;;;;;;;;;5069388;28;20031;-55
2023/12/13 13:05:18;;;;;;;21.20;19.30;;;;;;;;;;5051467;28;20024;-56
2023/12/13 13:07:44;;;;;;;21.30;19.40;;;;;;;;;;5068823;28;20017;-56
2023/12/13 13:10:10;;;;;;;20.80;18.90;;;;;;;;;;5069569;28;20028;-53
2023/12/13 13:12:41;;;;;;;20.95;19.05;;;;;;;;;;5068938;28;20024;-53
2023/12/13 13:15:07;;;;;;;21.35;19.45;;;;;;;;;;5073953;28;20025;-54
2023/12/13 13:17:33;;;;;;;22.10;20.20;;;;;;;;;;5079971;28;20054;-53
2023/12/13 13:20:01;;;;;;;21.25;19.35;;;;;;;;;;5068876;28;20477;-55
2023/12/13 13:22:27;;;;;;;21.23;19.33;;;;;;;;;;5068745;28;20032;-55
2023/12/13 13:24:53;;;;;;;21.88;19.98;;;;;;;;;;5068481;28;20024;-56
2023/12/13 13:27:19;;;;;;;21.30;19.40;;;;;;;;;;5068812;28;20025;-54
2023/12/13 13:29:45;;;;;;;21.33;19.42;;;;;;;;;;5079155;28;20393;-57
2023/12/13 13:32:11;;;;;;;20.95;19.05;;;;;;;;;;5066852;28;20036;-56
2023/12/13 13:34:37;;;;;;;20.77;18.88;;;;;;;;;;5068687;28;20048;-55
2023/12/13 13:37:03;;;;;;;20.67;18.77;;;;;;;;;;5068511;28;20096;-55
2023/12/13 13:39:30;;;;;;;21.75;19.80;;;;;;;;;;5083545;28;20078;-51
2023/12/13 13:41:56;;;;;;;20.52;18.63;;;;;;;;;;5083575;28;20131;-58
2023/12/13 13:44:22;;;;;;;21.60;19.70;;;;;;;;;;5081890;28;20027;-57
2023/12/13 13:46:50;;;;;;;21.02;19.13;;;;;;;;;;5081712;28;20025;-55
2023/12/13 13:49:18;;;;;;;21.25;19.35;;;;;;;;;;5068680;28;20062;-56
2023/12/13 13:51:44;;;;;;;21.02;19.13;;;;;;;;;;5050612;28;20048;-56
2023/12/13 13:54:10;;;;;;;21.23;19.33;;;;;;;;;;5068445;28;20024;-56
2023/12/13 13:56:37;;;;;;;20.95;19.05;;;;;;;;;;5068646;28;20098;-57
2023/12/13 13:59:03;;;;;;;21.05;19.15;;;;;;;;;;5068102;28;20124;-56
2023/12/13 14:01:31;;;;;;;20.85;18.95;;;;;;;;;;5050383;28;20024;-56
2023/12/13 14:03:59;;;;;;;21.27;19.37;;;;;;;;;;5068608;28;20024;-56
2023/12/13 14:06:26;;;;;;;21.25;19.35;;;;;;;;;;5068652;28;20876;-57
2023/12/13 14:08:52;;;;;;;21.58;19.67;;;;;;;;;;5068586;28;20041;-52
2023/12/13 14:11:18;;;;;;;21.15;19.25;;;;;;;;;;5050468;28;20077;-53
2023/12/13 14:13:44;;;;;;;21.65;19.75;;;;;;;;;;5068470;28;20091;-55